createdAt,value
2023-05-01T00:00:25.023Z,99715.88
2023-05-01T00:01:08.418Z,99704.19
2023-05-01T00:01:50.140Z,99748.75
2023-05-01T00:02:32.227Z,99740.72
2023-05-01T00:03:16.548Z,99747.31
2023-05-01T00:03:58.804Z,99731.41
2023-05-01T00:04:40.681Z,99709.16
2023-05-01T00:05:22.344Z,99740.47
2023-05-01T00:06:07.946Z,99734.88
2023-05-01T00:06:49.647Z,99747.13
2023-05-01T00:07:31.347Z,99725.91
2023-05-01T00:08:13.274Z,99746.66
2023-05-01T00:08:54.872Z,99722.63
2023-05-01T00:09:36.601Z,99739.66
2023-05-01T00:10:20.068Z,99745.41
2023-05-01T00:11:05.672Z,99733.16
2023-05-01T00:11:47.399Z,99740.66
2023-05-01T00:12:29.414Z,99735.25
2023-05-01T00:13:11.388Z,99739.31
2023-05-01T00:13:54.354Z,99743.38
2023-05-01T00:14:35.990Z,99738.25
2023-05-01T00:15:17.660Z,99740.06
2023-05-01T00:15:59.306Z,99728.28
2023-05-01T00:16:41.023Z,99733.22
2023-05-01T00:17:26.009Z,99736.47
2023-05-01T00:18:07.712Z,99726.16
2023-05-01T00:18:49.417Z,99736.06
2023-05-01T00:19:31.009Z,99717.50
2023-05-01T00:20:12.784Z,99730.81
2023-05-01T00:20:54.419Z,99740.22
2023-05-01T00:21:36.048Z,99738.75
2023-05-01T00:22:17.620Z,99736.94
2023-05-01T00:22:59.228Z,99716.84
2023-05-01T00:23:40.857Z,99731.03
2023-05-01T00:24:22.538Z,99730.81
2023-05-01T00:25:04.336Z,99729.81
2023-05-01T00:25:46.125Z,99735.94
2023-05-01T00:26:31.168Z,99727.81
2023-05-01T00:27:13.234Z,99728.63
2023-05-01T00:27:54.882Z,99733.94
2023-05-01T00:28:36.617Z,99724.53
2023-05-01T00:29:18.251Z,99731.28
2023-05-01T00:30:00.173Z,99736.69
2023-05-01T00:30:41.798Z,99730.00
2023-05-01T00:31:25.503Z,99733.94
2023-05-01T00:32:07.693Z,99728.28
2023-05-01T00:32:49.428Z,99728.56
2023-05-01T00:33:31.132Z,99731.69
2023-05-01T00:34:13.169Z,99709.94
2023-05-01T00:34:56.581Z,99730.16
2023-05-01T00:35:38.459Z,99730.78
2023-05-01T00:36:20.927Z,99724.47
2023-05-01T00:37:02.561Z,99697.16
2023-05-01T00:37:44.166Z,99727.03
2023-05-01T00:38:25.818Z,99711.31
2023-05-01T00:39:07.928Z,99724.47
2023-05-01T00:39:49.778Z,99722.63
2023-05-01T00:40:31.408Z,99706.50
2023-05-01T00:41:13.300Z,99717.81
2023-05-01T00:41:55.857Z,99698.25
2023-05-01T00:42:39.222Z,99718.63
2023-05-01T00:43:21.174Z,99716.34
2023-05-01T00:44:03.330Z,99718.34
2023-05-01T00:44:44.928Z,99639.44
2023-05-01T00:45:26.565Z,99680.56
2023-05-01T00:46:09.551Z,99702.75
2023-05-01T00:46:51.294Z,99693.91
2023-05-01T00:47:35.150Z,99718.47
2023-05-01T00:48:17.173Z,99708.03
2023-05-01T00:49:00.383Z,99700.19
2023-05-01T00:49:43.650Z,99707.84
2023-05-01T00:50:25.244Z,99697.56
2023-05-01T00:51:08.791Z,99704.56
2023-05-01T00:51:53.163Z,99699.44
2023-05-01T00:52:35.385Z,99708.22
2023-05-01T00:53:17.267Z,99706.75
2023-05-01T00:54:00.356Z,99686.00
2023-05-01T00:54:42.090Z,99690.16
2023-05-01T00:55:23.717Z,99681.28
2023-05-01T00:56:07.578Z,99696.09
2023-05-01T00:56:50.898Z,99686.28
2023-05-01T00:57:33.394Z,99693.69
2023-05-01T00:58:17.788Z,99704.72
2023-05-01T00:58:59.692Z,99699.81
2023-05-01T00:59:41.410Z,99696.69
2023-05-01T01:00:24.709Z,99699.69
2023-05-01T01:01:08.803Z,99674.78
2023-05-01T01:02:34.083Z,99696.03
2023-05-01T01:03:16.526Z,99698.44
2023-05-01T01:03:58.272Z,99693.84
2023-05-01T01:04:45.396Z,99698.88
2023-05-01T01:05:32.600Z,99700.22
2023-05-01T01:06:18.350Z,99681.16
2023-05-01T01:07:05.723Z,99693.19
2023-05-01T01:08:15.373Z,99685.16
2023-05-01T01:09:19.043Z,99691.09
2023-05-01T01:10:12.767Z,99688.63
2023-05-01T01:11:02.001Z,99693.09
2023-05-01T01:11:57.575Z,99688.78
2023-05-01T01:13:01.307Z,99688.50
2023-05-01T01:14:15.150Z,99688.97
2023-05-01T01:15:23.913Z,99696.56
2023-05-01T01:16:30.140Z,99688.09
2023-05-01T01:17:21.502Z,99693.81
2023-05-01T01:18:16.546Z,99680.31
2023-05-01T01:19:19.949Z,99688.19
2023-05-01T01:20:24.733Z,99692.13
2023-05-01T01:21:09.077Z,99692.94
2023-05-01T01:21:58.583Z,99686.34
2023-05-01T01:22:45.987Z,99688.66
2023-05-01T01:23:33.320Z,99692.75
2023-05-01T01:24:59.393Z,99693.38
2023-05-01T01:26:03.201Z,99692.19
2023-05-01T01:27:06.186Z,99691.19
2023-05-01T01:28:06.350Z,99688.56
2023-05-01T01:29:04.770Z,99697.31
2023-05-01T01:29:55.950Z,99688.19
2023-05-01T01:30:56.763Z,99693.97
2023-05-01T01:31:50.856Z,99695.41
2023-05-01T01:32:39.460Z,99683.38
2023-05-01T01:33:39.122Z,99685.91
2023-05-01T01:34:27.736Z,99682.72
2023-05-01T01:35:16.845Z,99687.81
2023-05-01T01:36:05.020Z,99671.31
2023-05-01T01:36:55.944Z,99670.09
2023-05-01T01:37:48.473Z,99681.28
2023-05-01T01:38:40.332Z,99665.56
2023-05-01T01:39:27.777Z,99686.50
2023-05-01T01:40:16.867Z,99675.72
2023-05-01T01:41:13.688Z,99679.19
2023-05-01T01:41:57.718Z,99661.09
2023-05-01T01:42:52.190Z,99666.00
2023-05-01T01:43:40.566Z,99664.31
2023-05-01T01:44:38.942Z,99670.84
2023-05-01T01:45:30.226Z,99674.41
2023-05-01T01:46:12.143Z,99680.38
2023-05-01T01:46:55.007Z,99668.03
2023-05-01T01:47:41.751Z,99667.28
2023-05-01T01:48:28.626Z,99661.34
2023-05-01T01:49:19.511Z,99654.59
2023-05-01T01:50:05.852Z,99665.09
2023-05-01T01:50:48.224Z,99666.09
2023-05-01T01:51:30.548Z,99660.81
2023-05-01T01:52:15.136Z,99664.09
2023-05-01T01:53:00.200Z,99666.53
2023-05-01T01:53:46.163Z,99650.56
2023-05-01T01:54:35.594Z,99667.34
2023-05-01T01:55:21.139Z,99655.69
2023-05-01T01:56:06.151Z,99648.94
2023-05-01T01:56:50.365Z,99660.41
2023-05-01T01:57:33.346Z,99662.06
2023-05-01T01:58:18.220Z,99663.88
2023-05-01T01:59:02.505Z,99669.41
2023-05-01T01:59:47.695Z,99663.28
2023-05-01T02:00:30.556Z,99671.78
2023-05-01T02:01:15.171Z,99660.72
2023-05-01T02:01:59.006Z,99665.84
2023-05-01T02:02:41.296Z,99667.19
2023-05-01T02:03:24.271Z,99654.97
2023-05-01T02:04:07.916Z,99662.09
2023-05-01T02:04:52.095Z,99670.41
2023-05-01T02:05:36.303Z,99669.22
2023-05-01T02:06:18.327Z,99654.78
2023-05-01T02:07:01.452Z,99670.97
2023-05-01T02:07:46.906Z,99659.78
2023-05-01T02:08:31.692Z,99671.66
2023-05-01T02:09:19.057Z,99659.97
2023-05-01T02:10:04.338Z,99674.31
2023-05-01T02:10:48.017Z,99671.50
2023-05-01T02:11:31.666Z,99661.63
2023-05-01T02:12:15.766Z,99670.97
2023-05-01T02:12:58.332Z,99668.31
2023-05-01T02:13:41.589Z,99662.91
2023-05-01T02:14:26.949Z,99658.91
2023-05-01T02:15:10.578Z,99665.44
2023-05-01T02:15:53.856Z,99671.50
2023-05-01T02:16:37.472Z,99666.84
2023-05-01T02:17:21.174Z,99662.34
2023-05-01T02:18:07.185Z,99657.63
2023-05-01T02:18:50.679Z,99667.94
2023-05-01T02:19:33.784Z,99658.69
2023-05-01T02:20:16.343Z,99671.03
2023-05-01T02:20:59.680Z,99665.75
2023-05-01T02:21:42.733Z,99667.22
2023-05-01T02:22:26.708Z,99659.81
2023-05-01T02:23:09.982Z,99673.13
2023-05-01T02:23:52.701Z,99658.81
2023-05-01T02:24:36.647Z,99663.97
2023-05-01T02:25:18.797Z,99640.97
2023-05-01T02:26:03.799Z,99667.31
2023-05-01T02:26:51.856Z,99662.00
2023-05-01T02:27:40.831Z,99659.38
2023-05-01T02:28:24.457Z,99642.25
2023-05-01T02:29:07.438Z,99651.50
2023-05-01T02:29:51.218Z,99669.28
2023-05-01T02:30:32.975Z,99668.31
2023-05-01T02:31:14.681Z,99656.78
2023-05-01T02:31:56.623Z,99657.16
2023-05-01T02:32:38.806Z,99668.63
2023-05-01T02:33:21.435Z,99667.00
2023-05-01T02:34:03.101Z,99665.38
2023-05-01T02:34:45.463Z,99660.25
2023-05-01T02:35:27.137Z,99657.97
2023-05-01T02:36:08.796Z,99664.91
2023-05-01T02:36:51.149Z,99645.84
2023-05-01T02:37:32.868Z,99658.69
2023-05-01T02:38:15.155Z,99661.81
2023-05-01T02:38:57.077Z,99653.78
2023-05-01T02:39:39.733Z,99657.34
2023-05-01T02:40:21.821Z,99640.25
2023-05-01T02:41:04.188Z,99642.19
2023-05-01T02:41:46.661Z,99651.84
2023-05-01T02:42:29.375Z,99655.97
2023-05-01T02:43:13.793Z,99651.50
2023-05-01T02:44:01.769Z,99647.03
2023-05-01T02:44:48.751Z,99647.84
2023-05-01T02:45:32.248Z,99631.41
2023-05-01T02:46:16.530Z,99649.50
2023-05-01T02:47:00.352Z,99654.78
2023-05-01T02:47:44.238Z,99652.31
2023-05-01T02:48:28.223Z,99636.16
2023-05-01T02:49:10.577Z,99649.84
2023-05-01T02:49:54.343Z,99640.81
2023-05-01T02:50:40.602Z,99632.22
2023-05-01T02:51:24.696Z,99640.44
2023-05-01T02:52:07.241Z,99640.63
2023-05-01T02:52:49.952Z,99647.22
2023-05-01T02:53:52.952Z,99642.91
2023-05-01T02:54:38.362Z,99625.84
2023-05-01T02:55:20.135Z,99634.03
2023-05-01T02:56:03.840Z,99641.44
2023-05-01T02:56:45.624Z,99633.03
2023-05-01T02:57:27.643Z,99619.91
2023-05-01T02:58:15.266Z,99632.84
2023-05-01T02:58:57.156Z,99635.97
2023-05-01T02:59:40.317Z,99628.13
2023-05-01T03:00:23.382Z,99628.13
2023-05-01T03:01:05.584Z,99641.63
2023-05-01T03:01:47.451Z,99634.69
2023-05-01T03:02:29.464Z,99628.50
2023-05-01T03:03:14.701Z,99621.28
2023-05-01T03:03:56.492Z,99632.16
2023-05-01T03:04:38.311Z,99632.16
2023-05-01T03:05:21.170Z,99636.06
2023-05-01T03:06:03.236Z,99644.03
2023-05-01T03:06:45.544Z,99634.63
2023-05-01T03:07:34.887Z,99630.97
2023-05-01T03:08:17.205Z,99626.84
2023-05-01T03:08:58.927Z,99618.00
2023-05-01T03:09:40.711Z,99635.44
2023-05-01T03:10:22.701Z,99623.09
2023-05-01T03:11:07.912Z,99620.28
2023-05-01T03:11:49.508Z,99627.50
2023-05-01T03:12:31.348Z,99628.03
2023-05-01T03:13:13.084Z,99631.78
2023-05-01T03:13:54.872Z,99627.31
2023-05-01T03:14:36.539Z,99608.78
2023-05-01T03:15:18.711Z,99622.56
2023-05-01T03:16:00.741Z,99622.38
2023-05-01T03:16:42.497Z,99631.59
2023-05-01T03:17:24.273Z,99633.44
2023-05-01T03:18:06.555Z,99614.34
2023-05-01T03:18:48.637Z,99616.63
2023-05-01T03:19:32.151Z,99628.13
2023-05-01T03:20:13.767Z,99614.97
2023-05-01T03:20:56.920Z,99627.31
2023-05-01T03:21:39.941Z,99623.66
2023-05-01T03:22:21.695Z,99619.25
2023-05-01T03:23:03.461Z,99600.19
2023-05-01T03:23:45.425Z,99624.19
2023-05-01T03:24:27.113Z,99626.84
2023-05-01T03:25:09.650Z,99614.16
2023-05-01T03:25:52.493Z,99629.69
2023-05-01T03:26:34.243Z,99616.53
2023-05-01T03:27:15.881Z,99627.38
2023-05-01T03:27:57.542Z,99608.97
2023-05-01T03:28:39.569Z,99609.59
2023-05-01T03:29:21.677Z,99617.38
2023-05-01T03:30:04.622Z,99623.91
2023-05-01T03:30:51.799Z,99602.97
2023-05-01T03:31:33.568Z,99620.38
2023-05-01T03:32:16.814Z,99626.31
2023-05-01T03:32:59.759Z,99615.81
2023-05-01T03:33:45.500Z,99621.31
2023-05-01T03:34:28.236Z,99625.50
2023-05-01T03:35:10.942Z,99607.13
2023-05-01T03:36:05.977Z,99625.03
2023-05-01T03:36:48.999Z,99616.38
2023-05-01T03:37:31.070Z,99627.84
2023-05-01T03:38:12.806Z,99624.13
2023-05-01T03:39:14.566Z,99625.78
2023-05-01T03:40:22.478Z,99623.94
2023-05-01T03:41:36.153Z,99625.38
2023-05-01T03:42:27.293Z,99618.91
2023-05-01T03:43:15.323Z,99627.50
2023-05-01T03:43:57.291Z,99625.84
2023-05-01T03:44:59.007Z,99615.44
2023-05-01T03:45:42.661Z,99610.31
2023-05-01T03:46:26.187Z,99623.31
2023-05-01T03:47:08.199Z,99618.56
2023-05-01T03:47:54.635Z,99610.78
2023-05-01T03:48:36.384Z,99612.44
2023-05-01T03:49:18.100Z,99619.84
2023-05-01T03:50:03.151Z,99629.69
2023-05-01T03:50:46.659Z,99622.56
2023-05-01T03:51:28.718Z,99596.56
2023-05-01T03:52:14.691Z,99617.91
2023-05-01T03:52:57.613Z,99604.97
2023-05-01T03:53:39.283Z,99601.50
2023-05-01T03:54:22.426Z,99618.53
2023-05-01T03:55:24.317Z,99597.44
2023-05-01T03:56:07.345Z,99608.19
2023-05-01T03:56:49.159Z,99613.50
2023-05-01T03:57:32.336Z,99601.00
2023-05-01T03:58:14.076Z,99600.56
2023-05-01T03:58:57.646Z,99609.22
2023-05-01T03:59:39.346Z,99603.09
2023-05-01T04:00:21.910Z,99608.59
2023-05-01T04:01:03.840Z,99604.50
2023-05-01T04:01:47.459Z,99607.97
2023-05-01T04:02:29.272Z,99612.25
2023-05-01T04:03:11.388Z,99605.66
2023-05-01T04:03:54.691Z,99615.91
2023-05-01T04:04:36.751Z,99590.91
2023-05-01T04:05:18.908Z,99606.84
2023-05-01T04:06:05.472Z,99614.25
2023-05-01T04:06:49.598Z,99604.56
2023-05-01T04:07:31.446Z,99603.97
2023-05-01T04:08:13.399Z,99622.38
2023-05-01T04:08:55.754Z,99618.91
2023-05-01T04:09:37.482Z,99624.84
2023-05-01T04:10:19.143Z,99616.25
2023-05-01T04:11:09.747Z,99593.53
2023-05-01T04:11:51.576Z,99618.38
2023-05-01T04:12:33.248Z,99602.38
2023-05-01T04:13:14.894Z,99583.13
2023-05-01T04:13:56.571Z,99599.63
2023-05-01T04:14:38.338Z,99610.66
2023-05-01T04:15:20.434Z,99611.84
2023-05-01T04:16:02.960Z,99608.97
2023-05-01T04:16:44.756Z,99611.69
2023-05-01T04:17:27.506Z,99606.19
2023-05-01T04:18:09.639Z,99611.50
2023-05-01T04:18:51.595Z,99596.38
2023-05-01T04:19:34.814Z,99601.25
2023-05-01T04:20:19.074Z,99613.13
2023-05-01T04:21:00.903Z,99606.66
2023-05-01T04:21:42.830Z,99598.91
2023-05-01T04:22:24.497Z,99596.44
2023-05-01T04:23:07.656Z,99605.28
2023-05-01T04:23:49.463Z,99594.25
2023-05-01T04:24:31.144Z,99593.06
2023-05-01T04:25:12.884Z,99593.25
2023-05-01T04:25:54.917Z,99549.56
2023-05-01T04:26:36.818Z,99610.69
2023-05-01T04:27:19.608Z,99594.88
2023-05-01T04:28:01.496Z,99607.53
2023-05-01T04:28:43.233Z,99599.53
2023-05-01T04:29:26.422Z,99608.72
2023-05-01T04:30:08.834Z,99604.06
2023-05-01T04:30:50.709Z,99602.19
2023-05-01T04:31:32.418Z,99608.56
2023-05-01T04:32:14.124Z,99591.78
2023-05-01T04:32:55.864Z,99603.44
2023-05-01T04:33:37.671Z,99598.34
2023-05-01T04:34:19.679Z,99608.56
2023-05-01T04:35:01.494Z,99596.25
2023-05-01T04:35:48.881Z,99592.78
2023-05-01T04:36:32.847Z,99609.78
2023-05-01T04:37:17.788Z,99596.06
2023-05-01T04:37:59.465Z,99596.88
2023-05-01T04:38:41.313Z,99604.47
2023-05-01T04:39:23.846Z,99602.81
2023-05-01T04:40:06.688Z,99601.38
2023-05-01T04:40:48.933Z,99605.00
2023-05-01T04:41:30.675Z,99582.31
2023-05-01T04:42:12.692Z,99593.13
2023-05-01T04:42:55.064Z,99598.91
2023-05-01T04:43:36.753Z,99598.91
2023-05-01T04:44:18.655Z,99602.38
2023-05-01T04:45:03.782Z,99594.31
2023-05-01T04:45:49.048Z,99600.44
2023-05-01T04:46:30.874Z,99594.72
2023-05-01T04:47:12.937Z,99592.72
2023-05-01T04:47:54.748Z,99591.50
2023-05-01T04:48:36.765Z,99596.25
2023-05-01T04:49:18.378Z,99590.31
2023-05-01T04:50:00.183Z,99590.69
2023-05-01T04:50:42.558Z,99599.25
2023-05-01T04:51:24.330Z,99606.75
2023-05-01T04:52:07.116Z,99597.72
2023-05-01T04:53:03.352Z,99612.97
2023-05-01T04:53:45.242Z,99614.34
2023-05-01T04:54:38.304Z,99611.69
2023-05-01T04:55:20.064Z,99612.72
2023-05-01T04:56:17.906Z,99609.25
2023-05-01T04:57:01.322Z,99607.84
2023-05-01T04:57:43.051Z,99608.31
2023-05-01T04:58:24.971Z,99609.13
2023-05-01T04:59:12.838Z,99607.78
2023-05-01T04:59:55.061Z,99599.56
2023-05-01T05:00:36.956Z,99601.25
2023-05-01T05:01:21.189Z,99601.72
2023-05-01T05:02:04.067Z,99609.94
2023-05-01T05:02:46.572Z,99603.06
2023-05-01T05:03:29.939Z,99595.44
2023-05-01T05:04:11.991Z,99597.13
2023-05-01T05:04:56.582Z,99605.00
2023-05-01T05:05:38.840Z,99597.22
2023-05-01T05:06:22.540Z,99606.97
2023-05-01T05:07:04.294Z,99607.19
2023-05-01T05:08:06.558Z,99593.59
2023-05-01T05:08:53.454Z,99596.28
2023-05-01T05:09:35.410Z,99609.84
2023-05-01T05:10:17.257Z,99605.81
2023-05-01T05:11:06.003Z,99595.78
2023-05-01T05:11:54.726Z,99600.06
2023-05-01T05:12:38.103Z,99591.44
2023-05-01T05:13:20.312Z,99595.34
2023-05-01T05:14:08.208Z,99588.97
2023-05-01T05:14:49.956Z,99607.78
2023-05-01T05:15:32.950Z,99595.09
2023-05-01T05:16:15.261Z,99595.09
2023-05-01T05:16:57.288Z,99587.78
2023-05-01T05:17:41.367Z,99605.38
2023-05-01T05:18:23.474Z,99601.66
2023-05-01T05:19:06.077Z,99614.34
2023-05-01T05:19:51.663Z,99606.97
2023-05-01T05:20:33.348Z,99598.75
2023-05-01T05:21:15.316Z,99611.25
2023-05-01T05:22:03.239Z,99595.66
2023-05-01T05:22:47.679Z,99600.75
2023-05-01T05:23:35.428Z,99596.69
2023-05-01T05:24:17.109Z,99592.56
2023-05-01T05:25:04.163Z,99596.22
2023-05-01T05:25:46.165Z,99602.00
2023-05-01T05:26:28.405Z,99593.78
2023-05-01T05:27:12.855Z,99587.66
2023-05-01T05:27:54.540Z,99602.03
2023-05-01T05:28:36.275Z,99610.81
2023-05-01T05:29:18.156Z,99610.06
2023-05-01T05:30:00.154Z,99606.84
2023-05-01T05:30:42.690Z,99599.88
2023-05-01T05:31:28.105Z,99587.28
2023-05-01T05:32:10.351Z,99608.22
2023-05-01T05:32:52.297Z,99597.44
2023-05-01T05:33:35.473Z,99599.69
2023-05-01T05:34:17.481Z,99606.91
2023-05-01T05:34:59.673Z,99593.06
2023-05-01T05:35:42.420Z,99614.34
2023-05-01T05:36:24.846Z,99595.56
2023-05-01T05:37:06.695Z,99599.25
2023-05-01T05:37:52.073Z,99592.53
2023-05-01T05:38:33.716Z,99594.16
2023-05-01T05:39:16.106Z,99594.84
2023-05-01T05:39:58.129Z,99582.31
2023-05-01T05:40:40.251Z,99599.13
2023-05-01T05:41:22.068Z,99598.53
2023-05-01T05:42:06.631Z,99577.47
2023-05-01T05:42:48.353Z,99605.09
2023-05-01T05:43:30.190Z,99588.13
2023-05-01T05:44:12.474Z,99595.50
2023-05-01T05:44:54.293Z,99590.97
2023-05-01T05:45:36.641Z,99598.16
2023-05-01T05:46:19.025Z,99582.38
2023-05-01T05:47:01.487Z,99595.50
2023-05-01T05:47:46.509Z,99592.03
2023-05-01T05:48:28.739Z,99594.75
2023-05-01T05:49:10.639Z,99593.94
2023-05-01T05:49:52.351Z,99592.56
2023-05-01T05:50:33.994Z,99595.84
2023-05-01T05:51:15.882Z,99586.88
2023-05-01T05:51:57.744Z,99597.50
2023-05-01T05:52:39.752Z,99589.09
2023-05-01T05:53:24.325Z,99601.84
2023-05-01T05:54:08.649Z,99592.88
2023-05-01T05:54:51.686Z,99583.28
2023-05-01T05:55:33.322Z,99599.69
2023-05-01T05:56:19.410Z,99596.81
2023-05-01T05:57:02.690Z,99592.09
2023-05-01T05:57:45.084Z,99594.16
2023-05-01T05:58:27.170Z,99567.72
2023-05-01T05:59:09.058Z,99606.47
2023-05-01T05:59:50.810Z,99603.00
2023-05-01T06:00:36.401Z,99587.00
2023-05-01T06:01:20.301Z,99598.94
2023-05-01T06:02:02.060Z,99583.56
2023-05-01T06:02:44.538Z,99586.69
2023-05-01T06:03:27.358Z,99588.31
2023-05-01T06:04:14.917Z,99597.72
2023-05-01T06:04:57.947Z,99590.72
2023-05-01T06:05:43.881Z,99600.16
2023-05-01T06:06:26.450Z,99593.56
2023-05-01T06:07:08.436Z,99598.50
2023-05-01T06:07:50.136Z,99588.06
2023-05-01T06:08:32.450Z,99593.75
2023-05-01T06:09:15.040Z,99590.28
2023-05-01T06:10:05.039Z,99599.47
2023-05-01T06:10:46.794Z,99599.06
2023-05-01T06:11:29.059Z,99597.16
2023-05-01T06:12:11.714Z,99585.69
2023-05-01T06:12:58.759Z,99596.72
2023-05-01T06:13:52.682Z,99595.91
2023-05-01T06:14:34.434Z,99591.22
2023-05-01T06:15:17.007Z,99599.00
2023-05-01T06:16:04.367Z,99587.94
2023-05-01T06:16:46.355Z,99582.00
2023-05-01T06:17:28.375Z,99580.03
2023-05-01T06:18:10.458Z,99594.81
2023-05-01T06:18:52.451Z,99595.66
2023-05-01T06:19:35.894Z,99594.06
2023-05-01T06:20:22.582Z,99586.31
2023-05-01T06:21:05.563Z,99592.47
2023-05-01T06:21:48.131Z,99584.50
2023-05-01T06:22:29.887Z,99589.66
2023-05-01T06:23:21.398Z,99562.25
2023-05-01T06:24:30.398Z,99595.44
2023-05-01T06:25:14.872Z,99591.34
2023-05-01T06:25:56.633Z,99594.84
2023-05-01T06:26:38.515Z,99597.94
2023-05-01T06:27:20.360Z,99591.38
2023-05-01T06:28:02.544Z,99588.50
2023-05-01T06:28:46.365Z,99586.69
2023-05-01T06:29:28.180Z,99591.38
2023-05-01T06:30:10.940Z,99597.91
2023-05-01T06:30:55.934Z,99584.81
2023-05-01T06:31:39.230Z,99594.88
2023-05-01T06:32:21.221Z,99601.63
2023-05-01T06:33:03.075Z,99599.97
2023-05-01T06:33:44.991Z,99600.59
2023-05-01T06:34:37.713Z,99604.50
2023-05-01T06:35:19.364Z,99598.16
2023-05-01T06:36:01.192Z,99595.88
2023-05-01T06:36:42.912Z,99610.41
2023-05-01T06:37:24.611Z,99611.50
2023-05-01T06:38:06.471Z,99603.72
2023-05-01T06:38:49.198Z,99605.56
2023-05-01T06:39:31.086Z,99592.25
2023-05-01T06:40:13.102Z,99604.94
2023-05-01T06:40:54.937Z,99617.59
2023-05-01T06:41:38.620Z,99617.63
2023-05-01T06:42:23.104Z,99611.88
2023-05-01T06:43:05.457Z,99601.66
2023-05-01T06:43:47.389Z,99610.47
2023-05-01T06:44:32.781Z,99600.78
2023-05-01T06:45:16.307Z,99616.22
2023-05-01T06:45:58.026Z,99617.00
2023-05-01T06:46:40.525Z,99602.69
2023-05-01T06:47:22.314Z,99615.16
2023-05-01T06:48:04.634Z,99601.66
2023-05-01T06:48:46.380Z,99620.69
2023-05-01T06:49:29.701Z,99617.63
2023-05-01T06:50:11.485Z,99613.13
2023-05-01T06:50:53.425Z,99605.94
2023-05-01T06:51:35.101Z,99610.06
2023-05-01T06:52:16.806Z,99621.31
2023-05-01T06:53:00.916Z,99611.50
2023-05-01T06:53:42.638Z,99614.34
2023-05-01T06:54:24.587Z,99620.28
2023-05-01T06:55:06.572Z,99616.38
2023-05-01T06:55:48.265Z,99630.06
2023-05-01T06:56:29.995Z,99626.19
2023-05-01T06:57:11.664Z,99624.75
2023-05-01T06:57:53.411Z,99619.66
2023-05-01T06:58:35.057Z,99626.63
2023-05-01T06:59:16.722Z,99623.97
2023-05-01T06:59:58.678Z,99632.97
2023-05-01T07:00:40.840Z,99622.31
2023-05-01T07:01:22.724Z,99629.28
2023-05-01T07:02:04.712Z,99617.38
2023-05-01T07:02:46.543Z,99626.63
2023-05-01T07:03:28.566Z,99622.97
2023-05-01T07:04:10.834Z,99620.50
2023-05-01T07:04:53.352Z,99630.72
2023-05-01T07:05:35.131Z,99631.13
2023-05-01T07:06:16.819Z,99642.81
2023-05-01T07:06:58.574Z,99625.19
2023-05-01T07:07:44.552Z,99628.28
2023-05-01T07:08:29.241Z,99623.78
2023-05-01T07:09:11.765Z,99636.88
2023-05-01T07:09:53.377Z,99626.25
2023-05-01T07:10:35.328Z,99636.66
2023-05-01T07:11:17.070Z,99626.63
2023-05-01T07:11:58.970Z,99645.06
2023-05-01T07:12:40.573Z,99648.34
2023-05-01T07:13:22.224Z,99635.38
2023-05-01T07:14:03.942Z,99639.31
2023-05-01T07:14:45.632Z,99648.94
2023-05-01T07:15:27.383Z,99637.03
2023-05-01T07:16:09.105Z,99630.88
2023-05-01T07:16:50.886Z,99631.97
2023-05-01T07:17:32.740Z,99632.97
2023-05-01T07:18:14.483Z,99639.13
2023-05-01T07:18:57.308Z,99642.00
2023-05-01T07:19:39.443Z,99642.19
2023-05-01T07:20:21.173Z,99627.88
2023-05-01T07:21:02.814Z,99640.97
2023-05-01T07:21:44.490Z,99639.75
2023-05-01T07:22:26.139Z,99638.72
2023-05-01T07:23:07.892Z,99634.59
2023-05-01T07:23:49.630Z,99631.56
2023-05-01T07:24:31.333Z,99637.69
2023-05-01T07:25:13.544Z,99639.91
2023-05-01T07:25:55.652Z,99632.53
2023-05-01T07:26:38.597Z,99635.38
2023-05-01T07:27:20.561Z,99638.25
2023-05-01T07:28:04.523Z,99635.38
2023-05-01T07:28:46.386Z,99625.97
2023-05-01T07:29:28.167Z,99638.44
2023-05-01T07:30:10.801Z,99645.59
2023-05-01T07:30:52.516Z,99634.16
2023-05-01T07:31:34.219Z,99642.56
2023-05-01T07:32:16.210Z,99641.56
2023-05-01T07:32:58.964Z,99645.84
2023-05-01T07:33:41.994Z,99645.44
2023-05-01T07:34:23.693Z,99647.47
2023-05-01T07:35:05.910Z,99642.38
2023-05-01T07:35:47.631Z,99637.06
2023-05-01T07:36:29.489Z,99641.78
2023-05-01T07:37:11.130Z,99626.41
2023-05-01T07:37:52.941Z,99642.19
2023-05-01T07:38:34.929Z,99637.47
2023-05-01T07:39:17.827Z,99636.66
2023-05-01T07:39:59.726Z,99635.63
2023-05-01T07:40:41.500Z,99639.31
2023-05-01T07:41:25.326Z,99630.91
2023-05-01T07:42:07.352Z,99636.03
2023-05-01T07:42:49.011Z,99617.81
2023-05-01T07:43:30.800Z,99624.16
2023-05-01T07:44:12.493Z,99631.94
2023-05-01T07:44:54.162Z,99626.81
2023-05-01T07:45:35.841Z,99629.91
2023-05-01T07:46:17.520Z,99629.66
2023-05-01T07:47:06.368Z,99629.66
2023-05-01T07:47:48.166Z,99624.13
2023-05-01T07:48:29.944Z,99626.19
2023-05-01T07:49:11.626Z,99627.00
2023-05-01T07:49:53.369Z,99624.56
2023-05-01T07:50:35.219Z,99620.66
2023-05-01T07:51:18.376Z,99627.59
2023-05-01T07:52:00.021Z,99616.56
2023-05-01T07:52:41.764Z,99620.44
2023-05-01T07:53:23.607Z,99631.91
2023-05-01T07:54:05.385Z,99631.06
2023-05-01T07:54:51.130Z,99631.28
2023-05-01T07:55:33.354Z,99626.94
2023-05-01T07:56:15.135Z,99632.69
2023-05-01T07:56:56.800Z,99629.81
2023-05-01T07:57:39.215Z,99627.97
2023-05-01T07:58:20.938Z,99631.03
2023-05-01T07:59:03.137Z,99624.47
2023-05-01T07:59:44.941Z,99622.41
2023-05-01T08:00:26.612Z,99632.25
2023-05-01T08:01:09.204Z,99622.34
2023-05-01T08:01:51.073Z,99638.72
2023-05-01T08:02:32.887Z,99639.13
2023-05-01T08:03:15.091Z,99639.09
2023-05-01T08:03:57.039Z,99635.38
2023-05-01T08:04:38.839Z,99635.41
2023-05-01T08:05:20.776Z,99634.53
2023-05-01T08:06:02.519Z,99643.81
2023-05-01T08:06:44.602Z,99637.25
2023-05-01T08:07:26.329Z,99647.91
2023-05-01T08:08:08.963Z,99633.94
2023-05-01T08:08:50.787Z,99629.00
2023-05-01T08:09:32.522Z,99640.69
2023-05-01T08:10:14.999Z,99639.25
2023-05-01T08:10:56.736Z,99636.53
2023-05-01T08:11:38.438Z,99628.31
2023-05-01T08:12:20.351Z,99635.22
2023-05-01T08:13:02.088Z,99627.78
2023-05-01T08:13:43.811Z,99635.31
2023-05-01T08:14:25.560Z,99631.78
2023-05-01T08:15:08.078Z,99633.81
2023-05-01T08:15:50.033Z,99630.31
2023-05-01T08:16:32.000Z,99637.00
2023-05-01T08:17:13.806Z,99638.84
2023-05-01T08:17:55.597Z,99637.34
2023-05-01T08:18:37.433Z,99632.00
2023-05-01T08:19:19.212Z,99626.22
2023-05-01T08:20:00.891Z,99644.22
2023-05-01T08:20:42.564Z,99639.88
2023-05-01T08:21:27.273Z,99637.13
2023-05-01T08:22:08.959Z,99643.44
2023-05-01T08:22:51.281Z,99646.28
2023-05-01T08:23:33.158Z,99636.09
2023-05-01T08:24:14.834Z,99640.41
2023-05-01T08:24:56.560Z,99641.63
2023-05-01T08:25:38.273Z,99632.81
2023-05-01T08:26:22.351Z,99651.88
2023-05-01T08:27:04.448Z,99635.47
2023-05-01T08:27:46.317Z,99634.75
2023-05-01T08:28:28.139Z,99645.94
2023-05-01T08:29:10.273Z,99648.78
2023-05-01T08:29:52.115Z,99653.50
2023-05-01T08:30:33.823Z,99641.22
2023-05-01T08:31:15.598Z,99647.81
2023-05-01T08:31:58.758Z,99642.88
2023-05-01T08:32:40.667Z,99639.66
2023-05-01T08:33:22.430Z,99644.50
2023-05-01T08:34:04.424Z,99645.31
2023-05-01T08:34:46.478Z,99647.13
2023-05-01T08:35:28.122Z,99639.97
2023-05-01T08:36:10.852Z,99637.72
2023-05-01T08:36:52.580Z,99643.88